createdAt,value
2019-05-23T00:01:44.709Z,12.75
2019-05-23T00:04:12.662Z,12.63
2019-05-23T00:06:40.098Z,12.75
2019-05-23T00:09:06.033Z,12.75
2019-05-23T00:11:43.879Z,12.81
2019-05-23T00:14:37.051Z,12.75
2019-05-23T00:17:03.492Z,12.63
2019-05-23T00:19:29.428Z,12.56
2019-05-23T00:21:55.414Z,12.81
2019-05-23T00:24:21.655Z,12.56
2019-05-23T00:26:47.903Z,12.50
2019-05-23T00:29:15.314Z,12.63
2019-05-23T00:31:46.407Z,12.50
2019-05-23T00:34:12.943Z,12.56
2019-05-23T00:36:40.062Z,12.56
2019-05-23T00:39:07.089Z,12.56
2019-05-23T00:41:33.036Z,12.50
2019-05-23T00:43:59.770Z,12.37
2019-05-23T00:46:25.616Z,12.50
2019-05-23T00:48:51.563Z,12.44
2019-05-23T00:51:18.607Z,12.44
2019-05-23T00:53:44.755Z,12.31
2019-05-23T00:56:12.828Z,12.37
2019-05-23T00:58:38.757Z,12.37
2019-05-23T01:01:05.526Z,12.50
2019-05-23T01:03:31.357Z,12.63
2019-05-23T01:05:58.766Z,12.37
2019-05-23T01:08:25.446Z,12.37
2019-05-23T01:10:51.579Z,12.44
2019-05-23T01:13:18.203Z,12.25
2019-05-23T01:15:45.863Z,12.31
2019-05-23T01:18:11.789Z,12.31
2019-05-23T01:20:56.391Z,12.31
2019-05-23T01:23:24.115Z,12.50
2019-05-23T01:25:50.459Z,12.31
2019-05-23T01:28:16.495Z,12.19
2019-05-23T01:30:44.231Z,12.25
2019-05-23T01:33:10.058Z,12.31
2019-05-23T01:35:36.799Z,12.19
2019-05-23T01:38:04.298Z,12.44
2019-05-23T01:40:30.475Z,12.37
2019-05-23T01:42:56.323Z,12.37
2019-05-23T01:45:22.147Z,12.25
2019-05-23T01:47:49.584Z,12.00
2019-05-23T01:50:16.210Z,12.00
2019-05-23T01:52:42.096Z,12.19
2019-05-23T01:55:09.043Z,12.25
2019-05-23T01:57:35.564Z,12.06
2019-05-23T02:00:10.613Z,12.19
2019-05-23T02:02:33.532Z,11.94
2019-05-23T02:04:59.383Z,11.94
2019-05-23T02:07:26.739Z,12.13
2019-05-23T02:09:53.486Z,11.81
2019-05-23T02:12:19.807Z,11.94
2019-05-23T02:14:46.141Z,11.88
2019-05-23T02:17:12.280Z,11.94
2019-05-23T02:19:38.386Z,11.81
2019-05-23T02:22:04.665Z,11.88
2019-05-23T02:24:31.079Z,11.69
2019-05-23T02:26:58.011Z,11.56
2019-05-23T02:29:25.246Z,11.56
2019-05-23T02:31:52.673Z,11.44
2019-05-23T02:34:19.292Z,11.81
2019-05-23T02:36:45.531Z,11.69
2019-05-23T02:39:28.121Z,11.44
2019-05-23T02:41:58.417Z,11.63
2019-05-23T02:44:25.146Z,11.63
2019-05-23T02:46:55.436Z,11.56
2019-05-23T02:49:23.361Z,11.50
2019-05-23T02:51:49.232Z,11.63
2019-05-23T02:54:15.398Z,11.50
2019-05-23T02:56:42.679Z,11.38
2019-05-23T02:59:18.586Z,11.50
2019-05-23T03:02:23.627Z,11.56
2019-05-23T03:04:51.778Z,11.31
2019-05-23T03:07:19.714Z,11.38
2019-05-23T03:09:47.640Z,11.44
2019-05-23T03:12:15.411Z,11.44
2019-05-23T03:14:42.166Z,11.44
2019-05-23T03:17:17.215Z,11.38
2019-05-23T03:19:52.159Z,11.50
2019-05-23T03:22:35.515Z,11.25
2019-05-23T03:25:05.039Z,11.12
2019-05-23T03:27:34.788Z,11.31
2019-05-23T03:30:02.533Z,11.31
2019-05-23T03:32:44.950Z,11.19
2019-05-23T03:35:12.975Z,11.06
2019-05-23T03:37:39.311Z,11.12
2019-05-23T03:40:06.737Z,11.00
2019-05-23T03:42:32.588Z,10.94
2019-05-23T03:44:59.450Z,10.81
2019-05-23T03:47:27.177Z,11.12
2019-05-23T03:49:54.220Z,10.75
2019-05-23T03:52:21.167Z,10.75
2019-05-23T03:54:48.910Z,10.81
2019-05-23T03:57:15.378Z,10.81
2019-05-23T03:59:43.235Z,10.69
2019-05-23T04:02:10.978Z,10.94
2019-05-23T04:04:37.539Z,10.88
2019-05-23T04:07:04.577Z,10.75
2019-05-23T04:09:30.458Z,10.75
2019-05-23T04:11:57.599Z,10.94
2019-05-23T04:14:24.139Z,10.88
2019-05-23T04:16:50.904Z,10.56
2019-05-23T04:19:17.196Z,10.56
2019-05-23T04:21:43.210Z,10.56
2019-05-23T04:24:09.146Z,10.44
2019-05-23T04:26:35.019Z,10.38
2019-05-23T04:29:00.882Z,10.31
2019-05-23T04:31:26.940Z,10.50
2019-05-23T04:33:52.908Z,10.31
2019-05-23T04:36:19.051Z,10.31
2019-05-23T04:38:45.717Z,10.44
2019-05-23T04:41:11.591Z,10.25
2019-05-23T04:43:37.567Z,10.31
2019-05-23T04:46:03.556Z,10.44
2019-05-23T04:48:29.467Z,10.38
2019-05-23T04:50:59.544Z,10.31
2019-05-23T04:53:23.191Z,10.50
2019-05-23T04:55:49.729Z,10.50
2019-05-23T04:58:16.459Z,10.69
2019-05-23T05:00:42.333Z,10.69
2019-05-23T05:03:08.642Z,10.75
2019-05-23T05:05:34.576Z,10.75
2019-05-23T05:08:00.585Z,10.94
2019-05-23T05:10:27.011Z,10.94
2019-05-23T05:12:52.835Z,11.12
2019-05-23T05:15:19.070Z,11.12
2019-05-23T05:17:45.302Z,11.25
2019-05-23T05:20:12.247Z,11.25
2019-05-23T05:22:38.183Z,11.31
2019-05-23T05:25:05.035Z,11.50
2019-05-23T05:27:30.861Z,11.38
2019-05-23T05:29:56.737Z,11.50
2019-05-23T05:32:23.391Z,11.50
2019-05-23T05:34:49.281Z,11.69
2019-05-23T05:37:15.207Z,11.63
2019-05-23T05:39:41.071Z,11.75
2019-05-23T05:42:08.521Z,11.88
2019-05-23T05:44:34.343Z,11.94
2019-05-23T05:47:00.525Z,12.06
2019-05-23T05:49:28.180Z,12.25
2019-05-23T05:51:54.614Z,12.00
2019-05-23T05:54:20.512Z,11.94
2019-05-23T05:56:46.608Z,12.00
2019-05-23T05:59:12.448Z,12.06
2019-05-23T06:01:39.551Z,12.13
2019-05-23T06:04:05.903Z,12.31
2019-05-23T06:06:45.331Z,12.31
2019-05-23T06:09:21.971Z,12.50
2019-05-23T06:11:48.020Z,12.25
2019-05-23T06:14:14.035Z,12.31
2019-05-23T06:16:40.497Z,12.31
2019-05-23T06:19:07.132Z,12.31
2019-05-23T06:21:33.974Z,12.37
2019-05-23T06:24:00.333Z,12.31
2019-05-23T06:26:26.305Z,12.44
2019-05-23T06:28:52.407Z,12.63
2019-05-23T06:31:19.846Z,12.63
2019-05-23T06:33:45.684Z,12.69
2019-05-23T06:36:11.688Z,12.81
2019-05-23T06:38:38.339Z,13.06
2019-05-23T06:41:05.108Z,12.88
2019-05-23T06:43:32.961Z,12.94
2019-05-23T06:45:58.934Z,12.94
2019-05-23T06:48:26.152Z,13.00
2019-05-23T06:50:53.695Z,12.81
2019-05-23T06:53:19.753Z,12.94
2019-05-23T06:55:45.600Z,13.13
2019-05-23T06:58:11.860Z,13.06
2019-05-23T07:00:37.836Z,13.00
2019-05-23T07:03:04.334Z,13.13
2019-05-23T07:05:33.296Z,13.13
2019-05-23T07:07:59.305Z,13.06
2019-05-23T07:10:25.562Z,13.13
2019-05-23T07:12:51.518Z,13.25
2019-05-23T07:15:17.595Z,13.25
2019-05-23T07:17:43.553Z,13.31
2019-05-23T07:20:10.211Z,13.62
2019-05-23T07:22:36.291Z,13.56
2019-05-23T07:25:05.020Z,13.62
2019-05-23T07:27:31.267Z,13.62
2019-05-23T07:29:57.299Z,13.69
2019-05-23T07:32:23.232Z,13.69
2019-05-23T07:34:49.093Z,13.75
2019-05-23T07:37:15.024Z,13.75
2019-05-23T07:39:40.917Z,13.81
2019-05-23T07:42:07.522Z,13.88
2019-05-23T07:44:47.523Z,14.00
2019-05-23T07:47:01.842Z,14.06
2019-05-23T07:49:27.688Z,13.94
2019-05-23T07:51:53.533Z,14.06
2019-05-23T07:54:27.200Z,14.25
2019-05-23T07:56:53.422Z,14.25
2019-05-23T07:59:19.309Z,14.38
2019-05-23T08:01:48.354Z,14.25
2019-05-23T08:04:21.036Z,14.06
2019-05-23T08:06:42.379Z,14.13
2019-05-23T08:09:09.167Z,14.19
2019-05-23T08:11:35.268Z,14.25
2019-05-23T08:14:01.665Z,14.38
2019-05-23T08:16:27.774Z,14.50
2019-05-23T08:18:53.842Z,14.50
2019-05-23T08:21:19.904Z,14.69
2019-05-23T08:23:45.991Z,14.87
2019-05-23T08:26:12.434Z,14.75
2019-05-23T08:28:56.736Z,14.63
2019-05-23T08:31:07.412Z,14.75
2019-05-23T08:33:34.317Z,14.81
2019-05-23T08:36:00.294Z,14.87
2019-05-23T08:38:26.860Z,14.87
2019-05-23T08:40:53.253Z,14.94
2019-05-23T08:43:19.409Z,14.94
2019-05-23T08:45:45.419Z,15.13
2019-05-23T08:48:12.081Z,15.00
2019-05-23T08:50:38.164Z,15.06
2019-05-23T08:53:04.171Z,15.19
2019-05-23T08:55:30.959Z,15.25
2019-05-23T08:57:57.458Z,15.25
2019-05-23T09:00:28.511Z,15.38
2019-05-23T09:02:58.487Z,15.50
2019-05-23T09:05:27.484Z,15.56
2019-05-23T09:07:53.628Z,15.50
2019-05-23T09:10:19.474Z,15.44
2019-05-23T09:12:45.383Z,15.56
2019-05-23T09:15:11.449Z,15.56
2019-05-23T09:17:52.231Z,15.69
2019-05-23T09:20:05.882Z,15.75
2019-05-23T09:22:32.076Z,15.75
2019-05-23T09:24:57.972Z,15.88
2019-05-23T09:27:25.742Z,15.81
2019-05-23T09:29:51.759Z,16.00
2019-05-23T09:32:18.323Z,16.00
2019-05-23T09:34:44.302Z,16.06
2019-05-23T09:37:11.692Z,16.25
2019-05-23T09:39:38.139Z,16.00
2019-05-23T09:42:04.021Z,16.00
2019-05-23T09:44:29.894Z,16.06
2019-05-23T09:46:55.832Z,16.31
2019-05-23T09:49:21.790Z,16.25
2019-05-23T09:51:49.345Z,16.19
2019-05-23T09:54:15.737Z,16.31
2019-05-23T09:56:41.787Z,16.44
2019-05-23T09:59:07.755Z,16.44
2019-05-23T10:01:33.935Z,16.62
2019-05-23T10:04:00.016Z,16.87
2019-05-23T10:06:25.981Z,16.75
2019-05-23T10:08:51.917Z,16.81
2019-05-23T10:11:17.970Z,16.87
2019-05-23T10:13:43.949Z,16.94
2019-05-23T10:16:10.031Z,16.75
2019-05-23T10:18:36.256Z,16.62
2019-05-23T10:21:02.813Z,16.75
2019-05-23T10:23:28.788Z,16.75
2019-05-23T10:26:05.343Z,16.94
2019-05-23T10:28:31.227Z,17.00
2019-05-23T10:30:57.221Z,17.06
2019-05-23T10:33:23.182Z,17.12
2019-05-23T10:35:59.993Z,17.06
2019-05-23T10:38:16.896Z,17.06
2019-05-23T10:40:42.895Z,17.06
2019-05-23T10:43:08.870Z,16.94
2019-05-23T10:45:35.323Z,17.31
2019-05-23T10:48:01.361Z,17.25
2019-05-23T10:50:41.983Z,17.44
2019-05-23T10:52:55.030Z,17.37
2019-05-23T10:55:20.996Z,17.37
2019-05-23T10:57:46.973Z,17.37
2019-05-23T11:00:15.166Z,17.44
2019-05-23T11:02:41.207Z,17.50
2019-05-23T11:05:13.181Z,17.50
2019-05-23T11:07:36.794Z,17.50
2019-05-23T11:10:04.901Z,17.50
2019-05-23T11:12:31.167Z,17.56
2019-05-23T11:14:59.670Z,17.62
2019-05-23T11:17:25.592Z,17.44
2019-05-23T11:19:51.496Z,17.56
2019-05-23T11:22:18.741Z,17.50
2019-05-23T11:24:44.628Z,17.50
2019-05-23T11:27:10.682Z,17.44
2019-05-23T11:29:36.639Z,17.50
2019-05-23T11:32:04.396Z,17.62
2019-05-23T11:34:31.568Z,17.56
2019-05-23T11:36:57.906Z,17.56
2019-05-23T11:39:25.052Z,17.75
2019-05-23T11:41:51.472Z,17.75
2019-05-23T11:44:17.384Z,17.94
2019-05-23T11:46:43.331Z,17.75
2019-05-23T11:49:09.373Z,17.75
2019-05-23T11:51:36.112Z,17.69
2019-05-23T11:54:08.498Z,17.75
2019-05-23T11:56:31.224Z,17.87
2019-05-23T11:59:01.240Z,17.87
2019-05-23T12:01:27.135Z,17.69
2019-05-23T12:03:57.552Z,17.75
2019-05-23T12:06:26.477Z,17.75
2019-05-23T12:08:52.658Z,17.62
2019-05-23T12:11:19.013Z,17.75
2019-05-23T12:13:45.033Z,17.56
2019-05-23T12:16:10.974Z,17.62
2019-05-23T12:18:36.808Z,17.81
2019-05-23T12:21:02.864Z,17.81
2019-05-23T12:23:28.723Z,17.81
2019-05-23T12:25:54.591Z,17.81
2019-05-23T12:28:20.887Z,18.00
2019-05-23T12:30:46.840Z,17.81
2019-05-23T12:33:12.882Z,17.69
2019-05-23T12:35:39.036Z,17.87
2019-05-23T12:38:05.099Z,17.87
2019-05-23T12:40:30.940Z,17.87
2019-05-23T12:42:56.817Z,18.06
2019-05-23T12:45:22.816Z,18.00
2019-05-23T12:47:50.677Z,17.81
2019-05-23T12:50:24.341Z,17.75
2019-05-23T12:52:50.330Z,18.00
2019-05-23T12:55:16.640Z,18.00
2019-05-23T12:57:42.616Z,18.12
2019-05-23T13:00:19.799Z,18.25
2019-05-23T13:02:45.778Z,18.25
2019-05-23T13:05:12.446Z,18.12
2019-05-23T13:07:38.678Z,18.12
2019-05-23T13:10:05.131Z,18.19
2019-05-23T13:12:31.029Z,18.19
2019-05-23T13:14:58.870Z,18.37
2019-05-23T13:17:24.703Z,18.37
2019-05-23T13:19:50.856Z,18.31
2019-05-23T13:22:16.690Z,18.37
2019-05-23T13:24:52.477Z,18.25
2019-05-23T13:29:48.777Z,18.62
2019-05-23T13:32:15.414Z,18.62
2019-05-23T13:34:41.400Z,18.56
2019-05-23T13:37:09.219Z,18.62
2019-05-23T13:39:35.550Z,18.62
2019-05-23T13:42:01.663Z,19.06
2019-05-23T13:44:34.171Z,18.87
2019-05-23T13:51:48.663Z,19.06
2019-05-23T13:56:40.742Z,18.94
2019-05-23T13:59:06.879Z,18.75
2019-05-23T14:01:32.813Z,18.56
2019-05-23T14:03:58.766Z,18.56
2019-05-23T14:11:16.763Z,18.56
2019-05-23T14:16:09.120Z,18.37
2019-05-23T14:18:36.394Z,18.25
2019-05-23T14:21:02.859Z,18.37
2019-05-23T14:23:30.420Z,18.69
2019-05-23T14:25:57.352Z,18.50
2019-05-23T14:28:23.529Z,18.44
2019-05-23T14:30:57.332Z,18.50
2019-05-23T14:33:25.524Z,18.69
2019-05-23T14:35:57.182Z,18.56
2019-05-23T14:38:30.780Z,18.44
2019-05-23T14:40:51.551Z,18.44
2019-05-23T14:43:19.371Z,18.75
2019-05-23T14:48:35.490Z,19.06
2019-05-23T14:53:31.375Z,19.12
2019-05-23T15:08:10.706Z,19.31
2019-05-23T15:17:55.659Z,19.44
2019-05-23T15:20:21.607Z,19.06
2019-05-23T15:22:47.470Z,19.06
2019-05-23T15:25:13.347Z,19.00
2019-05-23T15:27:39.286Z,19.12
2019-05-23T15:30:05.711Z,18.87
2019-05-23T15:32:31.707Z,19.00
2019-05-23T15:34:57.664Z,18.87
2019-05-23T15:37:23.639Z,18.75
2019-05-23T15:42:15.492Z,18.81
2019-05-23T15:44:41.450Z,18.75
2019-05-23T15:47:07.408Z,19.06
2019-05-23T15:49:34.651Z,19.00
2019-05-23T15:52:11.514Z,19.00
2019-05-23T15:54:39.566Z,19.37
2019-05-23T15:57:13.145Z,19.00
2019-05-23T15:59:47.223Z,19.06
2019-05-23T16:02:24.152Z,19.19
2019-05-23T16:04:50.735Z,18.75
2019-05-23T16:07:16.828Z,18.81
2019-05-23T16:09:42.794Z,18.62
2019-05-23T16:12:10.842Z,18.69
2019-05-23T16:14:36.953Z,18.81
2019-05-23T16:17:04.915Z,18.87
2019-05-23T16:19:31.167Z,18.69
2019-05-23T16:21:57.040Z,18.81
2019-05-23T16:24:23.208Z,19.12
2019-05-23T16:26:49.147Z,18.94
2019-05-23T16:29:16.475Z,18.87
2019-05-23T16:31:42.580Z,19.12
2019-05-23T16:34:08.538Z,19.25
2019-05-23T16:36:34.432Z,19.25
2019-05-23T16:39:00.373Z,19.19
2019-05-23T16:41:26.719Z,19.06
2019-05-23T16:43:52.573Z,18.87
2019-05-23T16:46:18.526Z,18.81
2019-05-23T16:48:44.567Z,18.81
2019-05-23T16:51:10.414Z,18.81
2019-05-23T16:53:36.566Z,18.81
2019-05-23T16:56:04.852Z,18.81
2019-05-23T16:58:32.744Z,18.75
2019-05-23T17:01:23.448Z,18.62
2019-05-23T17:03:51.545Z,18.62
2019-05-23T17:06:22.412Z,18.56
2019-05-23T17:08:52.699Z,18.69
2019-05-23T17:11:40.361Z,18.75
2019-05-23T17:14:14.026Z,19.19
2019-05-23T17:16:44.675Z,19.19
2019-05-23T17:19:12.820Z,18.94
2019-05-23T17:21:44.350Z,19.31
2019-05-23T17:24:12.113Z,19.37
2019-05-23T17:26:56.716Z,19.56
2019-05-23T17:29:30.653Z,19.37
2019-05-23T17:31:57.387Z,19.37
2019-05-23T17:34:23.480Z,19.25
2019-05-23T17:39:16.078Z,18.87
2019-05-23T17:41:42.937Z,18.62
2019-05-23T17:44:08.947Z,18.25
2019-05-23T17:46:34.957Z,18.25
2019-05-23T17:49:01.883Z,18.25
2019-05-23T17:51:27.978Z,18.12
2019-05-23T17:53:54.001Z,18.50
2019-05-23T17:58:45.940Z,18.50
2019-05-23T18:01:12.260Z,18.62
2019-05-23T18:03:38.268Z,18.56
2019-05-23T18:06:04.907Z,18.56
2019-05-23T18:08:31.546Z,18.44
2019-05-23T18:11:03.614Z,18.56
2019-05-23T18:13:32.006Z,18.50
2019-05-23T18:36:50.050Z,17.87
2019-05-23T18:39:22.229Z,18.12
2019-05-23T18:41:48.377Z,17.75
2019-05-23T18:44:14.777Z,17.81
2019-05-23T18:46:43.171Z,17.56
2019-05-23T18:49:10.181Z,17.56
2019-05-23T18:51:36.414Z,17.50
2019-05-23T18:54:09.130Z,17.37
2019-05-23T18:56:35.407Z,17.56
2019-05-23T18:59:02.009Z,17.31
2019-05-23T19:01:28.715Z,17.19
2019-05-23T19:03:55.161Z,17.12
2019-05-23T19:06:21.649Z,17.12
2019-05-23T19:08:48.002Z,17.06
2019-05-23T19:11:20.890Z,17.12
2019-05-23T19:13:42.051Z,17.19
2019-05-23T19:16:08.264Z,17.19
2019-05-23T19:18:35.906Z,17.12
2019-05-23T19:21:01.927Z,17.31
2019-05-23T19:23:28.463Z,17.12
2019-05-23T19:25:54.675Z,17.00
2019-05-23T19:28:21.957Z,16.94
2019-05-23T19:30:48.056Z,16.87
2019-05-23T19:33:14.118Z,16.75
2019-05-23T19:35:40.169Z,16.75
2019-05-23T19:38:07.427Z,16.75
2019-05-23T19:40:34.249Z,16.75
2019-05-23T19:43:00.319Z,16.75
2019-05-23T19:45:26.185Z,16.62
2019-05-23T19:47:52.043Z,16.50
2019-05-23T19:50:17.950Z,16.44
2019-05-23T19:52:45.852Z,16.50
2019-05-23T19:55:12.125Z,16.50
2019-05-23T19:57:39.099Z,16.50
2019-05-23T20:00:07.589Z,16.44
2019-05-23T20:02:47.576Z,16.37
2019-05-23T20:05:32.478Z,16.25
2019-05-23T20:07:58.645Z,16.25
2019-05-23T20:10:25.813Z,16.25
2019-05-23T20:12:51.772Z,16.25
2019-05-23T20:15:17.984Z,16.06
2019-05-23T20:17:43.891Z,15.94
2019-05-23T20:20:09.842Z,15.88
2019-05-23T20:22:35.699Z,15.88
2019-05-23T20:25:01.955Z,15.81
2019-05-23T20:27:27.780Z,15.81
2019-05-23T20:29:53.671Z,15.75
2019-05-23T20:32:20.300Z,15.75
2019-05-23T20:34:46.156Z,15.75
2019-05-23T20:37:12.128Z,15.69
2019-05-23T20:39:38.277Z,15.69
2019-05-23T20:42:11.273Z,15.75
2019-05-23T20:44:32.120Z,15.69
2019-05-23T20:46:58.099Z,15.50
2019-05-23T20:49:27.056Z,15.50
2019-05-23T20:51:52.242Z,15.44
2019-05-23T20:54:18.155Z,15.44
2019-05-23T20:56:44.150Z,15.38
2019-05-23T20:59:10.316Z,15.38
2019-05-23T21:01:38.144Z,15.38
2019-05-23T21:04:05.808Z,15.31
2019-05-23T21:06:32.008Z,15.31
2019-05-23T21:08:57.986Z,15.44
2019-05-23T21:11:24.072Z,15.31
2019-05-23T21:13:49.913Z,15.25
2019-05-23T21:16:15.886Z,15.25
2019-05-23T21:18:41.737Z,15.19
2019-05-23T21:21:07.740Z,15.13
2019-05-23T21:23:33.677Z,15.13
2019-05-23T21:26:01.435Z,15.13
2019-05-23T21:28:27.422Z,15.13
2019-05-23T21:30:53.441Z,15.06
2019-05-23T21:33:19.294Z,15.00
2019-05-23T21:35:45.285Z,15.00
2019-05-23T21:38:11.168Z,15.06
2019-05-23T21:40:42.633Z,15.00
2019-05-23T21:43:08.485Z,14.94
2019-05-23T21:45:34.384Z,14.94
2019-05-23T21:48:00.299Z,14.87
2019-05-23T21:50:26.281Z,14.81
2019-05-23T21:52:52.282Z,14.87
2019-05-23T21:55:22.076Z,14.81
2019-05-23T21:57:47.947Z,14.87
2019-05-23T22:00:19.545Z,14.81
2019-05-23T22:02:45.880Z,14.81
2019-05-23T22:05:14.189Z,14.69
2019-05-23T22:07:40.122Z,14.69
2019-05-23T22:10:06.089Z,14.69
2019-05-23T22:12:31.908Z,14.63
2019-05-23T22:14:57.818Z,14.69
2019-05-23T22:17:25.511Z,14.63
2019-05-23T22:19:51.484Z,14.75
2019-05-23T22:22:17.595Z,14.56
2019-05-23T22:24:43.601Z,14.56
2019-05-23T22:27:09.780Z,14.63
2019-05-23T22:29:35.832Z,14.56
2019-05-23T22:32:01.908Z,14.69
2019-05-23T22:34:30.294Z,14.75
2019-05-23T22:36:56.442Z,14.56
2019-05-23T22:39:22.284Z,14.56
2019-05-23T22:41:48.143Z,14.50
2019-05-23T22:44:14.290Z,14.50
2019-05-23T22:46:40.164Z,14.56
2019-05-23T22:49:06.003Z,14.63
2019-05-23T22:51:31.870Z,14.63
2019-05-23T22:53:57.741Z,14.56
2019-05-23T22:56:23.651Z,14.50
2019-05-23T22:58:49.504Z,14.44
2019-05-23T23:01:15.876Z,14.44
2019-05-23T23:03:41.715Z,14.31
2019-05-23T23:06:07.648Z,14.38
2019-05-23T23:08:34.083Z,14.38
2019-05-23T23:11:00.988Z,14.25
2019-05-23T23:13:38.226Z,14.31
2019-05-23T23:15:55.499Z,14.25
2019-05-23T23:18:21.448Z,14.31
2019-05-23T23:20:47.443Z,14.19
2019-05-23T23:23:13.391Z,14.19
2019-05-23T23:25:39.215Z,14.19
2019-05-23T23:28:05.192Z,14.19
2019-05-23T23:30:38.887Z,14.31
2019-05-23T23:33:04.746Z,14.25
2019-05-23T23:35:33.775Z,14.19
2019-05-23T23:37:59.722Z,14.19
2019-05-23T23:40:26.040Z,14.19
2019-05-23T23:42:51.877Z,14.06
2019-05-23T23:45:36.339Z,14.13
2019-05-23T23:48:20.523Z,14.06
2019-05-23T23:51:05.343Z,14.00
2019-05-23T23:53:49.860Z,14.00
2019-05-23T23:56:33.999Z,14.00
2019-05-23T23:58:59.731Z,14.00
